EDDC/DRS METAR and TAF weather

Enter ICAO airport designator
Station Type Date Time Source
EDDC METAR 2018/01/19 22:50 UTC NOAA

EDDC 192250Z 24008KT 210V270 9999 FEW036 BKN060 02/M01 Q1009


Station Type Date Time Source
EDDC Decoded METAR 2018/01/19 22:50 UTC NOAA

Dresden-Klotzsche, Germany (EDDC) 51-08N 013-45E 232M
Jan 19, 2018 - 05:50 PM EST / 2018.01.19 2250 UTC
Wind: from the WSW (240 degrees) at 9 MPH (8 KT) (direction variable):0
Visibility: greater than 7 mile(s):0
Sky conditions: mostly cloudy
Temperature: 35 F (2 C)
Windchill: 28 F (-2 C):1
Dew Point: 30 F (-1 C)
Relative Humidity: 80%
Pressure (altimeter): 29.80 in. Hg (1009 hPa)
ob: EDDC 192250Z 24008KT 210V270 9999 FEW036 BKN060 02/M01 Q1009
cycle: 23

Station Type Date Time Source
EDDC TAF 2018/01/19 18:27 UTC NOAA

TAF EDDC 191700Z 1918/2018 23007KT 9999 BKN015
TEMPO 1918/1921 4000 -SHSN BKN010CB PROB30
TEMPO 2002/2010 2000 SHSN BKN005 BKN010CB
BECMG 2015/2018 15006KT


Example: see airport list